createdAt,value
2022-10-18T00:00:24.390Z,0.00
2022-10-18T00:01:24.373Z,0.00
2022-10-18T00:02:25.412Z,0.00
2022-10-18T00:03:24.546Z,0.00
2022-10-18T00:04:24.694Z,0.00
2022-10-18T00:05:25.364Z,0.00
2022-10-18T00:06:25.009Z,0.00
2022-10-18T00:07:25.862Z,0.00
2022-10-18T00:08:25.370Z,0.00
2022-10-18T00:09:25.509Z,0.00
2022-10-18T00:10:25.633Z,0.00
2022-10-18T00:11:25.794Z,0.00
2022-10-18T00:12:26.866Z,0.00
2022-10-18T00:13:26.105Z,0.00
2022-10-18T00:14:26.240Z,0.00
2022-10-18T00:15:26.391Z,0.00
2022-10-18T00:16:27.373Z,0.00
2022-10-18T00:17:27.526Z,0.00
2022-10-18T00:18:26.898Z,0.00
2022-10-18T00:19:29.206Z,0.00
2022-10-18T00:20:27.239Z,0.00
2022-10-18T00:21:27.393Z,0.00
2022-10-18T00:22:27.687Z,0.00
2022-10-18T00:23:27.671Z,0.00
2022-10-18T00:24:27.823Z,0.00
2022-10-18T00:25:27.970Z,0.00
2022-10-18T00:26:28.103Z,0.00
2022-10-18T00:27:28.388Z,0.00
2022-10-18T00:28:28.493Z,0.00
2022-10-18T00:29:28.677Z,0.00
2022-10-18T00:30:28.892Z,0.00
2022-10-18T00:31:29.871Z,0.00
2022-10-18T00:32:29.566Z,0.00
2022-10-18T00:33:29.363Z,0.00
2022-10-18T00:34:29.519Z,0.00
2022-10-18T00:35:30.372Z,0.00
2022-10-18T00:36:30.372Z,0.00
2022-10-18T00:37:30.003Z,0.00
2022-10-18T00:38:30.872Z,0.00
2022-10-18T00:39:30.899Z,0.00
2022-10-18T00:40:31.373Z,0.00
2022-10-18T00:41:31.374Z,0.00
2022-10-18T00:42:31.051Z,0.00
2022-10-18T00:43:31.079Z,0.00
2022-10-18T00:44:31.249Z,0.00
2022-10-18T00:45:31.410Z,0.00
2022-10-18T00:46:32.376Z,0.00
2022-10-18T00:47:32.376Z,0.00
2022-10-18T00:48:31.874Z,0.00
2022-10-18T00:49:32.030Z,0.00
2022-10-18T00:50:32.876Z,0.00
2022-10-18T00:51:32.377Z,0.00
2022-10-18T00:52:33.811Z,0.00
2022-10-18T00:53:33.376Z,0.00
2022-10-18T00:54:32.901Z,0.00
2022-10-18T00:55:33.882Z,0.00
2022-10-18T00:56:33.275Z,0.00
2022-10-18T00:57:33.418Z,0.00
2022-10-18T00:58:33.538Z,0.00
2022-10-18T00:59:34.691Z,0.00
2022-10-18T01:00:33.805Z,0.00
2022-10-18T01:01:34.007Z,0.00
2022-10-18T01:02:34.434Z,0.00
2022-10-18T01:03:34.272Z,0.00
2022-10-18T01:04:34.420Z,0.00
2022-10-18T01:05:34.548Z,0.00
2022-10-18T01:06:35.377Z,0.00
2022-10-18T01:07:34.890Z,0.00
2022-10-18T01:08:35.398Z,0.00
2022-10-18T01:09:35.177Z,0.00
2022-10-18T01:10:35.892Z,0.00
2022-10-18T01:11:35.567Z,0.00
2022-10-18T01:12:35.705Z,0.00
2022-10-18T01:13:36.415Z,0.00
2022-10-18T01:14:36.891Z,0.00
2022-10-18T01:15:36.880Z,0.00
2022-10-18T01:16:36.358Z,0.00
2022-10-18T01:17:36.531Z,0.00
2022-10-18T01:18:36.673Z,0.00
2022-10-18T01:19:36.805Z,0.00
2022-10-18T01:20:36.943Z,0.00
2022-10-18T01:21:37.076Z,0.00
2022-10-18T01:22:37.263Z,0.00
2022-10-18T01:23:37.463Z,0.00
2022-10-18T01:24:37.648Z,0.00
2022-10-18T01:25:37.805Z,0.00
2022-10-18T01:26:37.971Z,0.00
2022-10-18T01:27:38.144Z,0.00
2022-10-18T01:28:38.506Z,0.00
2022-10-18T01:29:38.447Z,0.00
2022-10-18T01:30:38.593Z,0.00
2022-10-18T01:31:39.028Z,0.00
2022-10-18T01:32:38.930Z,0.00
2022-10-18T01:33:39.131Z,0.00
2022-10-18T01:34:39.294Z,0.00
2022-10-18T01:35:39.904Z,0.00
2022-10-18T01:36:40.386Z,0.00
2022-10-18T01:37:40.877Z,0.00
2022-10-18T01:38:39.986Z,0.00
2022-10-18T01:39:40.114Z,0.00
2022-10-18T01:40:40.319Z,0.00
2022-10-18T01:41:41.392Z,0.00
2022-10-18T01:42:40.656Z,0.00
2022-10-18T01:43:40.814Z,0.00
2022-10-18T01:44:40.970Z,0.00
2022-10-18T01:45:41.898Z,0.00
2022-10-18T01:46:41.934Z,0.00
2022-10-18T01:47:41.911Z,0.00
2022-10-18T01:48:41.648Z,0.00
2022-10-18T01:49:41.778Z,0.00
2022-10-18T01:50:41.920Z,0.00
2022-10-18T01:51:42.090Z,0.00
2022-10-18T01:52:42.301Z,0.00
2022-10-18T01:53:42.464Z,0.00
2022-10-18T01:54:42.600Z,0.00
2022-10-18T01:55:42.755Z,0.00
2022-10-18T01:56:42.914Z,0.00
2022-10-18T01:57:43.086Z,0.00
2022-10-18T01:58:43.242Z,0.00
2022-10-18T01:59:43.399Z,0.00
2022-10-18T02:00:43.542Z,0.00
2022-10-18T02:01:43.703Z,0.00
2022-10-18T02:02:44.400Z,0.00
2022-10-18T02:03:44.068Z,0.00
2022-10-18T02:04:44.901Z,0.00
2022-10-18T02:05:44.917Z,0.00
2022-10-18T02:06:44.549Z,0.00
2022-10-18T02:07:51.919Z,0.00
2022-10-18T02:08:45.916Z,0.00
2022-10-18T02:09:45.898Z,0.00
2022-10-18T02:10:45.921Z,0.00
2022-10-18T02:11:45.323Z,0.00
2022-10-18T02:12:45.466Z,0.00
2022-10-18T02:13:46.654Z,0.00
2022-10-18T02:14:45.756Z,0.00
2022-10-18T02:15:46.410Z,0.00
2022-10-18T02:16:46.937Z,0.00
2022-10-18T02:17:46.901Z,0.00
2022-10-18T02:18:46.405Z,0.00
2022-10-18T02:19:47.399Z,0.00
2022-10-18T02:20:46.760Z,0.00
2022-10-18T02:21:46.873Z,0.00
2022-10-18T02:22:47.025Z,0.00
2022-10-18T02:23:47.151Z,0.00
2022-10-18T02:24:47.291Z,0.00
2022-10-18T02:25:47.418Z,0.00
2022-10-18T02:26:47.560Z,0.00
2022-10-18T02:27:47.709Z,0.00
2022-10-18T02:28:47.880Z,0.00
2022-10-18T02:29:48.940Z,0.00
2022-10-18T02:30:48.168Z,0.00
2022-10-18T02:31:48.279Z,0.00
2022-10-18T02:32:48.418Z,0.00
2022-10-18T02:33:48.565Z,0.00
2022-10-18T02:34:48.712Z,0.00
2022-10-18T02:35:48.833Z,0.00
2022-10-18T02:36:48.957Z,0.00
2022-10-18T02:37:49.275Z,0.00
2022-10-18T02:38:49.400Z,0.00
2022-10-18T02:39:49.923Z,0.00
2022-10-18T02:40:50.410Z,0.00
2022-10-18T02:41:49.880Z,0.00
2022-10-18T02:42:50.431Z,0.00
2022-10-18T02:43:50.179Z,0.00
2022-10-18T02:44:50.348Z,0.00
2022-10-18T02:45:51.420Z,0.00
2022-10-18T02:46:51.430Z,0.00
2022-10-18T02:47:50.928Z,0.00
2022-10-18T02:48:50.960Z,0.00
2022-10-18T02:49:51.110Z,0.00
2022-10-18T02:50:51.260Z,0.00
2022-10-18T02:51:51.378Z,0.00
2022-10-18T02:52:51.925Z,0.00
2022-10-18T02:53:51.682Z,0.00
2022-10-18T02:54:52.418Z,0.00
2022-10-18T02:55:52.915Z,0.00
2022-10-18T02:56:52.140Z,0.00
2022-10-18T02:57:52.282Z,0.00
2022-10-18T02:58:52.425Z,0.00
2022-10-18T02:59:52.588Z,0.00
2022-10-18T03:00:52.743Z,0.00
2022-10-18T03:01:52.900Z,0.00
2022-10-18T03:02:53.918Z,0.00
2022-10-18T03:03:53.277Z,0.00
2022-10-18T03:04:53.914Z,0.00
2022-10-18T03:05:53.934Z,0.00
2022-10-18T03:06:53.805Z,0.00
2022-10-18T03:07:53.942Z,0.00
2022-10-18T03:08:54.068Z,0.00
2022-10-18T03:09:54.922Z,0.00
2022-10-18T03:10:54.603Z,0.00
2022-10-18T03:11:55.539Z,0.00
2022-10-18T03:12:54.926Z,0.00
2022-10-18T03:13:55.063Z,0.00
2022-10-18T03:14:55.452Z,0.00
2022-10-18T03:15:56.452Z,0.00
2022-10-18T03:16:55.683Z,0.00
2022-10-18T03:17:55.826Z,0.00
2022-10-18T03:18:55.967Z,0.00
2022-10-18T03:19:56.920Z,0.00
2022-10-18T03:20:56.312Z,0.00
2022-10-18T03:21:56.496Z,0.00
2022-10-18T03:22:56.628Z,0.00
2022-10-18T03:23:57.422Z,0.00
2022-10-18T03:24:57.420Z,0.00
2022-10-18T03:25:57.039Z,0.00
2022-10-18T03:26:57.303Z,0.00
2022-10-18T03:27:57.423Z,0.00
2022-10-18T03:28:58.503Z,0.00
2022-10-18T03:29:57.779Z,0.00
2022-10-18T03:30:58.422Z,0.00
2022-10-18T03:31:58.455Z,0.00
2022-10-18T03:32:58.258Z,0.00
2022-10-18T03:33:58.926Z,0.00
2022-10-18T03:34:59.439Z,0.00
2022-10-18T03:35:58.788Z,0.00
2022-10-18T03:37:02.112Z,0.00
2022-10-18T03:38:01.162Z,0.00
2022-10-18T03:38:59.447Z,0.00
2022-10-18T03:39:59.581Z,0.00
2022-10-18T03:41:00.446Z,0.00
2022-10-18T03:42:00.932Z,0.00
2022-10-18T03:43:00.169Z,0.00
2022-10-18T03:44:00.439Z,0.00
2022-10-18T03:45:00.467Z,0.00
2022-10-18T03:46:01.441Z,0.00
2022-10-18T03:47:01.432Z,0.00
2022-10-18T03:48:01.463Z,0.00
2022-10-18T03:49:01.461Z,0.00
2022-10-18T03:50:01.214Z,0.00
2022-10-18T03:51:01.932Z,0.00
2022-10-18T03:52:01.556Z,0.00
2022-10-18T03:53:01.680Z,0.00
2022-10-18T03:54:01.930Z,0.00
2022-10-18T03:55:02.944Z,0.00
2022-10-18T03:56:02.177Z,0.00
2022-10-18T03:57:02.324Z,0.00
2022-10-18T03:58:02.462Z,0.00
2022-10-18T03:59:03.442Z,0.00
2022-10-18T04:00:02.943Z,0.00
2022-10-18T04:01:03.936Z,0.00
2022-10-18T04:02:03.204Z,0.00
2022-10-18T04:03:03.308Z,0.00
2022-10-18T04:04:03.459Z,0.00
2022-10-18T04:05:03.946Z,0.00
2022-10-18T04:06:03.699Z,0.00
2022-10-18T04:07:04.440Z,0.00
2022-10-18T04:08:04.071Z,0.00
2022-10-18T04:09:06.597Z,0.00
2022-10-18T04:10:05.404Z,0.00
2022-10-18T04:11:04.530Z,0.00
2022-10-18T04:12:05.438Z,0.00
2022-10-18T04:13:04.790Z,0.00
2022-10-18T04:14:04.943Z,0.00
2022-10-18T04:15:05.093Z,0.00
2022-10-18T04:16:05.255Z,0.00
2022-10-18T04:17:05.403Z,0.00
2022-10-18T04:18:05.544Z,0.00
2022-10-18T04:19:05.958Z,0.00
2022-10-18T04:20:05.832Z,0.00
2022-10-18T04:21:06.451Z,0.00
2022-10-18T04:22:06.184Z,0.00
2022-10-18T04:23:06.298Z,0.00
2022-10-18T04:24:06.938Z,0.00
2022-10-18T04:25:06.567Z,0.00
2022-10-18T04:26:06.744Z,0.00
2022-10-18T04:27:06.857Z,0.00
2022-10-18T04:28:07.961Z,0.00
2022-10-18T04:29:07.263Z,0.00
2022-10-18T04:30:07.427Z,0.00
2022-10-18T04:31:08.437Z,0.00
2022-10-18T04:32:07.656Z,0.00
2022-10-18T04:33:07.879Z,0.00
2022-10-18T04:34:08.023Z,0.00
2022-10-18T04:35:08.949Z,0.00
2022-10-18T04:36:08.296Z,0.00
2022-10-18T04:37:08.445Z,0.00
2022-10-18T04:38:08.575Z,0.00
2022-10-18T04:39:08.838Z,0.00
2022-10-18T04:40:09.940Z,0.00
2022-10-18T04:41:09.164Z,0.00
2022-10-18T04:42:09.944Z,0.00
2022-10-18T04:43:09.428Z,0.00
2022-10-18T04:44:09.685Z,0.00
2022-10-18T04:45:09.797Z,0.00
2022-10-18T04:46:09.926Z,0.00
2022-10-18T04:47:10.976Z,0.00
2022-10-18T04:48:10.220Z,0.00
2022-10-18T04:49:10.352Z,0.00
2022-10-18T04:50:10.481Z,0.00
2022-10-18T04:51:10.609Z,0.00
2022-10-18T04:52:10.873Z,0.00
2022-10-18T04:53:11.945Z,0.00
2022-10-18T04:54:11.161Z,0.00
2022-10-18T04:55:11.462Z,0.00
2022-10-18T04:56:11.603Z,0.00
2022-10-18T04:57:11.732Z,0.00
2022-10-18T04:58:11.995Z,0.00
2022-10-18T04:59:12.153Z,0.00
2022-10-18T05:00:12.273Z,0.00
2022-10-18T05:01:13.035Z,0.00
2022-10-18T05:02:12.640Z,0.00
2022-10-18T05:03:12.804Z,0.00
2022-10-18T05:04:12.982Z,0.00
2022-10-18T05:05:14.314Z,0.00
2022-10-18T05:06:13.955Z,0.00
2022-10-18T05:07:13.590Z,0.00
2022-10-18T05:08:14.451Z,0.00
2022-10-18T05:09:13.960Z,0.00
2022-10-18T05:10:14.088Z,0.00
2022-10-18T05:11:14.217Z,0.00
2022-10-18T05:12:14.466Z,0.00
2022-10-18T05:13:14.577Z,0.00
2022-10-18T05:14:14.805Z,0.00
2022-10-18T05:15:15.076Z,0.00
2022-10-18T05:16:15.198Z,0.00
2022-10-18T05:17:15.954Z,0.00
2022-10-18T05:18:15.569Z,0.00
2022-10-18T05:19:16.459Z,0.00
2022-10-18T05:20:15.848Z,0.00
2022-10-18T05:21:15.989Z,0.00
2022-10-18T05:22:16.145Z,0.00
2022-10-18T05:23:16.985Z,0.00
2022-10-18T05:24:17.463Z,0.00
2022-10-18T05:25:16.694Z,0.00
2022-10-18T05:26:16.830Z,0.00
2022-10-18T05:27:16.965Z,0.00
2022-10-18T05:28:46.133Z,0.00
2022-10-18T05:29:20.039Z,0.00
2022-10-18T05:30:17.465Z,0.00
2022-10-18T05:31:17.631Z,0.00
2022-10-18T05:32:17.986Z,0.00
2022-10-18T05:33:18.021Z,0.00
2022-10-18T05:34:18.956Z,0.00
2022-10-18T05:35:18.962Z,0.00
2022-10-18T05:36:18.492Z,0.00
2022-10-18T05:37:18.647Z,0.00
2022-10-18T05:38:18.798Z,0.00
2022-10-18T05:39:18.932Z,4.00
2022-10-18T05:40:19.068Z,0.00
2022-10-18T05:41:19.474Z,4.00
2022-10-18T05:42:19.966Z,4.00
2022-10-18T05:43:20.463Z,4.00
2022-10-18T05:44:19.824Z,4.00
2022-10-18T05:45:20.474Z,4.00
2022-10-18T05:46:20.962Z,4.00
2022-10-18T05:47:20.965Z,4.00
2022-10-18T05:48:21.018Z,4.00
2022-10-18T05:49:20.643Z,0.00
2022-10-18T05:50:20.781Z,0.00
2022-10-18T05:51:20.951Z,4.00
2022-10-18T05:52:21.992Z,4.00
2022-10-18T05:53:36.373Z,4.00
2022-10-18T05:54:23.449Z,4.00
2022-10-18T05:55:21.682Z,4.00
2022-10-18T05:56:22.488Z,4.00
2022-10-18T05:57:22.483Z,4.00
2022-10-18T05:58:22.223Z,8.00
2022-10-18T05:59:22.381Z,4.00
2022-10-18T06:00:22.519Z,8.00
2022-10-18T06:01:22.646Z,8.00
2022-10-18T06:02:22.964Z,8.00
2022-10-18T06:03:23.063Z,12.00
2022-10-18T06:04:23.484Z,8.00
2022-10-18T06:05:23.973Z,8.00
2022-10-18T06:06:23.585Z,12.00
2022-10-18T06:07:23.817Z,12.00
2022-10-18T06:08:24.473Z,12.00
2022-10-18T06:09:24.486Z,16.00
2022-10-18T06:10:24.972Z,16.00
2022-10-18T06:11:24.440Z,16.00
2022-10-18T06:12:24.597Z,20.00
2022-10-18T06:13:24.742Z,20.00
2022-10-18T06:14:24.990Z,20.00
2022-10-18T06:15:25.493Z,20.00
2022-10-18T06:16:29.770Z,24.00
2022-10-18T06:17:30.302Z,24.00
2022-10-18T06:18:26.985Z,24.00
2022-10-18T06:19:25.707Z,28.00
2022-10-18T06:20:25.871Z,28.00
2022-10-18T06:21:26.033Z,36.00
2022-10-18T06:22:26.173Z,40.00
2022-10-18T06:23:26.323Z,48.00
2022-10-18T06:24:26.982Z,52.00
2022-10-18T06:25:27.478Z,64.00
2022-10-18T06:26:26.823Z,68.00
2022-10-18T06:27:26.964Z,72.00
2022-10-18T06:28:27.157Z,72.00
2022-10-18T06:29:27.494Z,72.00
2022-10-18T06:30:27.516Z,72.00
2022-10-18T06:31:27.664Z,72.00
2022-10-18T06:32:28.478Z,72.00
2022-10-18T06:33:27.950Z,76.00
2022-10-18T06:34:28.181Z,80.00
2022-10-18T06:35:28.318Z,80.00
2022-10-18T06:36:28.462Z,84.00
2022-10-18T06:37:28.640Z,84.00
2022-10-18T06:38:29.603Z,84.00
2022-10-18T06:39:29.482Z,76.00
2022-10-18T06:40:29.098Z,76.00
2022-10-18T06:41:29.257Z,72.00
2022-10-18T06:42:30.202Z,72.00
2022-10-18T06:43:29.520Z,72.00
2022-10-18T06:44:29.711Z,76.00
2022-10-18T06:45:29.867Z,80.00
2022-10-18T06:46:30.038Z,80.00
2022-10-18T06:47:30.983Z,80.00
2022-10-18T06:48:30.386Z,72.00
2022-10-18T06:49:30.543Z,72.00
2022-10-18T06:50:30.655Z,68.00
2022-10-18T06:51:30.784Z,68.00
2022-10-18T06:52:31.820Z,64.00
2022-10-18T06:53:31.091Z,60.00
2022-10-18T06:54:31.338Z,56.00
2022-10-18T06:55:31.522Z,56.00
2022-10-18T06:56:32.486Z,56.00
2022-10-18T06:57:32.489Z,56.00
2022-10-18T06:58:31.959Z,52.00
2022-10-18T06:59:32.994Z,48.00
2022-10-18T07:00:32.261Z,48.00
2022-10-18T07:01:33.030Z,44.00
2022-10-18T07:02:32.912Z,44.00
2022-10-18T07:03:33.736Z,40.00
2022-10-18T07:04:32.959Z,40.00
2022-10-18T07:06:34.993Z,40.00
2022-10-18T07:07:34.791Z,40.00
2022-10-18T07:08:33.693Z,44.00
2022-10-18T07:09:33.925Z,44.00
2022-10-18T07:10:34.076Z,44.00
2022-10-18T07:11:34.989Z,48.00
2022-10-18T07:12:34.371Z,48.00
2022-10-18T07:13:35.496Z,56.00
2022-10-18T07:14:34.731Z,60.00
2022-10-18T07:15:35.580Z,72.00
2022-10-18T07:16:36.009Z,80.00
2022-10-18T07:17:35.503Z,92.00
2022-10-18T07:18:35.424Z,100.00
2022-10-18T07:19:36.003Z,108.00
2022-10-18T07:20:36.016Z,108.00
2022-10-18T07:22:09.327Z,112.00
2022-10-18T07:22:36.067Z,104.00
2022-10-18T07:23:36.210Z,104.00
2022-10-18T07:24:36.370Z,100.00
2022-10-18T07:25:37.518Z,96.00
2022-10-18T07:26:36.628Z,92.00
2022-10-18T07:27:36.759Z,96.00
2022-10-18T07:28:37.550Z,104.00
2022-10-18T07:29:37.531Z,112.00
2022-10-18T07:30:38.026Z,120.00
2022-10-18T07:31:37.525Z,120.00
2022-10-18T07:32:37.681Z,120.00
2022-10-18T07:33:37.807Z,120.00
2022-10-18T07:34:37.974Z,116.00
2022-10-18T07:35:38.120Z,120.00
2022-10-18T07:36:38.333Z,124.00
2022-10-18T07:37:38.484Z,128.00
2022-10-18T07:38:38.602Z,132.00
2022-10-18T07:39:39.539Z,132.00
2022-10-18T07:40:39.541Z,136.00
2022-10-18T07:41:39.039Z,140.00
2022-10-18T07:42:40.030Z,148.00
2022-10-18T07:43:39.392Z,156.00
2022-10-18T07:44:40.035Z,160.00
2022-10-18T07:45:40.550Z,164.00
2022-10-18T07:46:40.044Z,164.00
2022-10-18T07:47:41.057Z,164.00
2022-10-18T07:48:40.125Z,160.00
2022-10-18T07:49:41.271Z,156.00
2022-10-18T07:51:13.770Z,152.00
2022-10-18T07:51:40.609Z,144.00
2022-10-18T07:52:40.773Z,136.00
2022-10-18T07:53:40.891Z,128.00
2022-10-18T07:54:41.099Z,124.00
2022-10-18T07:55:41.261Z,120.00
2022-10-18T07:56:42.066Z,124.00
2022-10-18T07:57:41.696Z,128.00
2022-10-18T07:58:41.812Z,132.00
2022-10-18T07:59:41.970Z,136.00
2022-10-18T08:00:42.071Z,140.00
2022-10-18T08:01:43.114Z,144.00
2022-10-18T08:02:43.069Z,148.00
2022-10-18T08:03:42.613Z,152.00
2022-10-18T08:04:42.790Z,160.00
2022-10-18T08:05:42.914Z,168.00
2022-10-18T08:06:43.050Z,176.00
2022-10-18T08:07:43.190Z,180.00
2022-10-18T08:08:43.339Z,180.00
2022-10-18T08:09:43.584Z,184.00
2022-10-18T08:10:43.620Z,192.00
2022-10-18T08:11:43.769Z,200.00
2022-10-18T08:12:43.920Z,204.00
2022-10-18T08:13:44.091Z,208.00
2022-10-18T08:14:44.217Z,208.00
2022-10-18T08:15:44.340Z,216.00
2022-10-18T08:16:44.591Z,228.00
2022-10-18T08:17:45.589Z,248.00
2022-10-18T08:18:44.977Z,268.00
2022-10-18T08:19:52.954Z,268.00
2022-10-18T08:20:46.257Z,256.00
2022-10-18T08:21:45.359Z,252.00
2022-10-18T08:22:46.087Z,256.00
2022-10-18T08:23:46.581Z,260.00
2022-10-18T08:24:46.006Z,276.00
2022-10-18T08:25:46.161Z,296.00
2022-10-18T08:26:46.314Z,316.00
2022-10-18T08:27:46.481Z,340.00
2022-10-18T08:28:54.048Z,360.00
2022-10-18T08:29:48.690Z,376.00
2022-10-18T08:30:47.577Z,388.00
2022-10-18T08:31:47.602Z,396.00
2022-10-18T08:32:47.388Z,384.00
2022-10-18T08:33:47.556Z,372.00
2022-10-18T08:34:47.717Z,356.00
2022-10-18T08:35:47.884Z,348.00
2022-10-18T08:36:48.113Z,344.00
2022-10-18T08:37:49.082Z,348.00
2022-10-18T08:38:49.083Z,340.00
2022-10-18T08:39:48.591Z,332.00
2022-10-18T08:40:48.730Z,332.00
2022-10-18T08:41:48.907Z,348.00
2022-10-18T08:42:49.055Z,352.00
2022-10-18T08:43:49.603Z,372.00
2022-10-18T08:44:49.377Z,416.00
2022-10-18T08:45:50.083Z,464.00
2022-10-18T08:46:49.704Z,520.00
2022-10-18T08:47:50.099Z,564.00
2022-10-18T08:48:50.007Z,612.00
2022-10-18T08:49:50.160Z,632.00
2022-10-18T08:50:50.308Z,608.00
2022-10-18T08:51:51.087Z,580.00
2022-10-18T08:52:50.594Z,540.00
2022-10-18T08:53:50.749Z,480.00
2022-10-18T08:54:50.907Z,460.00
2022-10-18T08:55:51.071Z,456.00
2022-10-18T08:56:51.223Z,440.00
2022-10-18T08:57:51.358Z,436.00
2022-10-18T08:58:51.619Z,440.00
2022-10-18T08:59:51.631Z,460.00
2022-10-18T09:00:51.789Z,468.00
2022-10-18T09:01:51.962Z,460.00
2022-10-18T09:02:52.097Z,464.00
2022-10-18T09:03:53.268Z,468.00
2022-10-18T09:04:53.086Z,480.00
2022-10-18T09:05:52.539Z,472.00
2022-10-18T09:06:52.803Z,484.00
2022-10-18T09:07:53.608Z,484.00
2022-10-18T09:08:53.090Z,484.00
2022-10-18T09:09:53.305Z,456.00
2022-10-18T09:10:54.185Z,432.00
2022-10-18T09:11:56.857Z,428.00
2022-10-18T09:12:54.810Z,424.00
2022-10-18T09:13:54.028Z,400.00
2022-10-18T09:14:54.163Z,404.00
2022-10-18T09:15:54.321Z,420.00
2022-10-18T09:16:54.610Z,412.00
2022-10-18T09:17:55.594Z,412.00
2022-10-18T09:18:54.808Z,416.00
2022-10-18T09:19:56.007Z,424.00
2022-10-18T09:20:55.136Z,416.00
2022-10-18T09:21:55.288Z,408.00
2022-10-18T09:22:55.446Z,384.00
2022-10-18T09:23:55.607Z,360.00
2022-10-18T09:24:55.767Z,340.00
2022-10-18T09:25:55.922Z,316.00
2022-10-18T09:26:57.067Z,300.00
2022-10-18T09:27:56.342Z,288.00
2022-10-18T09:28:57.218Z,272.00
2022-10-18T09:29:56.658Z,248.00
2022-10-18T09:30:59.544Z,224.00
2022-10-18T09:31:57.966Z,224.00
2022-10-18T09:32:57.116Z,208.00
2022-10-18T09:33:57.281Z,176.00
2022-10-18T09:34:57.444Z,196.00
2022-10-18T09:35:57.603Z,248.00
2022-10-18T09:36:57.773Z,320.00
2022-10-18T09:37:57.921Z,372.00
2022-10-18T09:39:00.330Z,384.00
2022-10-18T09:39:58.277Z,396.00
2022-10-18T09:40:59.108Z,416.00
2022-10-18T09:41:59.607Z,404.00
2022-10-18T09:42:59.600Z,424.00
2022-10-18T09:43:59.118Z,456.00
2022-10-18T09:44:59.130Z,472.00
2022-10-18T09:45:59.277Z,472.00
2022-10-18T09:47:00.120Z,476.00
2022-10-18T09:48:00.628Z,504.00
2022-10-18T09:48:59.886Z,500.00
2022-10-18T09:50:00.042Z,456.00
2022-10-18T09:51:00.194Z,432.00
2022-10-18T09:52:01.114Z,416.00
2022-10-18T09:53:01.121Z,412.00
2022-10-18T09:54:00.663Z,412.00
2022-10-18T09:55:01.611Z,416.00
2022-10-18T09:56:00.969Z,416.00
2022-10-18T09:57:01.119Z,412.00
2022-10-18T09:58:01.615Z,412.00
2022-10-18T09:59:01.379Z,420.00
2022-10-18T10:00:02.144Z,444.00
2022-10-18T10:01:02.617Z,440.00
2022-10-18T10:02:01.946Z,424.00
2022-10-18T10:03:02.016Z,408.00
2022-10-18T10:04:03.114Z,392.00
2022-10-18T10:05:02.410Z,364.00
2022-10-18T10:06:02.494Z,344.00
2022-10-18T10:07:02.656Z,340.00
2022-10-18T10:08:03.636Z,372.00
2022-10-18T10:09:03.018Z,512.00
2022-10-18T10:10:03.146Z,672.00
2022-10-18T10:11:03.258Z,676.00
2022-10-18T10:12:03.644Z,644.00
2022-10-18T10:13:04.674Z,580.00
2022-10-18T10:14:03.856Z,520.00
2022-10-18T10:15:04.615Z,540.00
2022-10-18T10:16:04.607Z,576.00
2022-10-18T10:17:04.248Z,564.00
2022-10-18T10:18:04.392Z,552.00
2022-10-18T10:19:05.114Z,544.00
2022-10-18T10:20:04.739Z,560.00
2022-10-18T10:21:05.615Z,628.00
2022-10-18T10:22:05.610Z,780.00
2022-10-18T10:23:05.382Z,900.00
2022-10-18T10:24:06.109Z,928.00
2022-10-18T10:25:06.644Z,884.00
2022-10-18T10:26:05.906Z,824.00
2022-10-18T10:27:06.623Z,780.00
2022-10-18T10:28:07.125Z,792.00
2022-10-18T10:29:13.244Z,856.00
2022-10-18T10:30:08.625Z,888.00
2022-10-18T10:31:06.870Z,964.00
2022-10-18T10:32:07.035Z,1028.00
2022-10-18T10:33:07.189Z,1108.00
2022-10-18T10:34:08.120Z,1152.00
2022-10-18T10:35:13.573Z,1100.00
2022-10-18T10:36:08.748Z,1000.00
2022-10-18T10:37:08.625Z,988.00
2022-10-18T10:38:08.651Z,1008.00
2022-10-18T10:39:09.116Z,1040.00
2022-10-18T10:40:27.693Z,1016.00
2022-10-18T10:41:10.494Z,1020.00
2022-10-18T10:42:11.442Z,1100.00
2022-10-18T10:43:18.480Z,1164.00
2022-10-18T10:44:11.046Z,1192.00
2022-10-18T10:45:09.634Z,1168.00
2022-10-18T10:46:09.390Z,1104.00
2022-10-18T10:47:10.123Z,1040.00
2022-10-18T10:48:09.738Z,984.00
2022-10-18T10:50:12.094Z,876.00
2022-10-18T10:51:10.314Z,828.00
2022-10-18T10:52:26.275Z,768.00
2022-10-18T10:53:12.702Z,688.00
2022-10-18T10:54:11.623Z,648.00
2022-10-18T10:55:33.731Z,612.00
2022-10-18T10:56:16.033Z,600.00
2022-10-18T10:57:12.465Z,620.00
2022-10-18T10:58:12.121Z,708.00
2022-10-18T10:59:11.778Z,848.00
2022-10-18T11:00:11.848Z,992.00
2022-10-18T11:01:11.976Z,1092.00
2022-10-18T11:02:12.127Z,1188.00
2022-10-18T11:03:27.904Z,1244.00
2022-10-18T11:04:14.516Z,1288.00
2022-10-18T11:05:13.119Z,1336.00
2022-10-18T11:06:12.879Z,1340.00
2022-10-18T11:07:13.015Z,1264.00
2022-10-18T11:08:13.154Z,1148.00
2022-10-18T11:09:13.277Z,1072.00
2022-10-18T11:10:14.127Z,1028.00
2022-10-18T11:11:15.323Z,988.00
2022-10-18T11:12:13.815Z,928.00
2022-10-18T11:13:13.969Z,836.00
2022-10-18T11:14:25.381Z,752.00
2022-10-18T11:15:16.342Z,708.00
2022-10-18T11:16:14.648Z,700.00
2022-10-18T11:17:15.631Z,740.00
2022-10-18T11:18:14.885Z,824.00
2022-10-18T11:19:15.055Z,956.00
2022-10-18T11:20:15.184Z,1084.00
2022-10-18T11:21:16.131Z,1168.00
2022-10-18T11:22:15.502Z,1256.00
2022-10-18T11:23:15.657Z,1348.00
2022-10-18T11:24:16.141Z,1392.00
2022-10-18T11:25:16.649Z,1356.00
2022-10-18T11:26:16.143Z,1336.00
2022-10-18T11:27:16.286Z,1308.00
2022-10-18T11:28:16.449Z,1316.00
2022-10-18T11:29:16.650Z,1352.00
2022-10-18T11:30:17.636Z,1444.00
2022-10-18T11:31:16.982Z,1596.00
2022-10-18T11:32:17.133Z,1708.00
2022-10-18T11:33:17.267Z,1756.00
2022-10-18T11:34:17.414Z,1768.00
2022-10-18T11:35:18.147Z,1692.00
2022-10-18T11:36:18.679Z,1528.00
2022-10-18T11:37:29.453Z,1340.00
2022-10-18T11:38:20.091Z,1140.00
2022-10-18T11:39:18.293Z,1052.00
2022-10-18T11:40:18.429Z,1040.00
2022-10-18T11:41:18.586Z,932.00
2022-10-18T11:42:18.777Z,784.00
2022-10-18T11:43:19.638Z,700.00
2022-10-18T11:44:19.640Z,660.00
2022-10-18T11:45:19.326Z,656.00
2022-10-18T11:46:19.393Z,692.00
2022-10-18T11:47:19.656Z,744.00
2022-10-18T11:48:19.685Z,820.00
2022-10-18T11:49:19.869Z,900.00
2022-10-18T11:50:20.038Z,976.00
2022-10-18T11:51:23.140Z,1060.00
2022-10-18T11:52:22.145Z,1140.00
2022-10-18T11:53:21.131Z,1176.00
2022-10-18T11:54:21.658Z,1048.00
2022-10-18T11:55:21.640Z,848.00
2022-10-18T11:56:21.093Z,688.00
2022-10-18T11:57:21.271Z,608.00
2022-10-18T11:58:21.429Z,628.00
2022-10-18T11:59:21.576Z,664.00
2022-10-18T12:00:22.689Z,672.00
2022-10-18T12:01:24.704Z,732.00
2022-10-18T12:02:24.066Z,812.00
2022-10-18T12:03:22.210Z,872.00
2022-10-18T12:04:22.657Z,900.00
2022-10-18T12:05:23.981Z,936.00
2022-10-18T12:06:23.790Z,864.00
2022-10-18T12:07:27.840Z,792.00
2022-10-18T12:08:25.277Z,784.00
2022-10-18T12:09:23.400Z,848.00
2022-10-18T12:10:32.866Z,964.00
2022-10-18T12:11:24.625Z,1176.00
2022-10-18T12:12:23.868Z,1880.00
2022-10-18T12:13:24.014Z,1848.00
2022-10-18T12:14:24.193Z,1872.00
2022-10-18T12:15:24.344Z,1952.00
2022-10-18T12:16:45.638Z,1884.00
2022-10-18T12:17:47.676Z,1820.00
2022-10-18T12:18:26.854Z,1852.00
2022-10-18T12:19:26.848Z,1916.00
2022-10-18T12:20:26.297Z,2364.00
2022-10-18T12:21:25.843Z,1764.00
2022-10-18T12:22:26.587Z,1552.00
2022-10-18T12:23:25.728Z,1356.00
2022-10-18T12:24:25.890Z,1224.00
2022-10-18T12:25:26.677Z,1200.00
2022-10-18T12:26:27.154Z,1204.00
2022-10-18T12:27:26.413Z,1216.00
2022-10-18T12:28:27.283Z,1280.00
2022-10-18T12:29:26.812Z,1316.00
2022-10-18T12:30:26.993Z,1276.00
2022-10-18T12:31:27.196Z,1256.00
2022-10-18T12:32:28.156Z,1280.00
2022-10-18T12:33:28.816Z,1280.00
2022-10-18T12:34:28.753Z,1296.00
2022-10-18T12:35:27.987Z,1308.00
2022-10-18T12:36:28.191Z,1308.00
2022-10-18T12:37:28.329Z,1300.00
2022-10-18T12:38:28.524Z,1280.00
2022-10-18T12:39:38.755Z,1280.00
2022-10-18T12:40:30.659Z,1224.00
2022-10-18T12:41:29.042Z,1148.00
2022-10-18T12:42:29.164Z,1096.00
2022-10-18T12:43:30.344Z,1072.00
2022-10-18T12:44:30.184Z,1032.00
2022-10-18T12:45:30.661Z,984.00
2022-10-18T12:46:29.931Z,944.00
2022-10-18T12:47:30.572Z,936.00
2022-10-18T12:48:30.360Z,972.00
2022-10-18T12:49:31.161Z,1016.00
2022-10-18T12:50:30.649Z,1500.00
2022-10-18T12:51:31.664Z,1436.00
2022-10-18T12:52:31.692Z,1840.00
2022-10-18T12:53:31.253Z,1956.00
2022-10-18T12:54:32.156Z,2588.00